Time;durP1;ratioP1;P1;durP2;ratioP2;P2;SDS_P1;SDS_P2;PMS_P1;PMS_P2;Temp;Humidity;BMP_temperature;BMP_pressure;BME280_temperature;BME280_humidity;BME280_pressure;Samples;Min_cycle;Max_cycle;Signal;HPM_P1;HPM_P2
2022/01/14 00:02:09;;;;;;;0.17;0.10;;;;;;;;;;5053040;28;20017;-66
2022/01/14 00:04:35;;;;;;;0.17;0.10;;;;;;;;;;5052809;28;20052;-66
2022/01/14 00:07:00;;;;;;;0.30;0.00;;;;;;;;;;5052724;28;20059;-66
2022/01/14 00:09:26;;;;;;;0.20;0.17;;;;;;;;;;5051402;28;20052;-66
2022/01/14 00:11:57;;;;;;;0.20;0.10;;;;;;;;;;5052823;28;20021;-67
2022/01/14 00:14:39;;;;;;;0.35;0.35;;;;;;;;;;5052621;28;20021;-67
2022/01/14 00:17:06;;;;;;;0.15;0.10;;;;;;;;;;5052440;28;20045;-66
2022/01/14 00:19:31;;;;;;;0.60;0.45;;;;;;;;;;5052621;28;20028;-66
2022/01/14 00:21:56;;;;;;;0.22;0.20;;;;;;;;;;5052542;28;20041;-67
2022/01/14 00:32:19;;;;;;;0.15;0.10;;;;;;;;;;5052320;28;20071;-67
2022/01/14 00:34:44;;;;;;;1.67;0.20;;;;;;;;;;5052522;28;20070;-67
2022/01/14 00:37:10;;;;;;;0.32;0.10;;;;;;;;;;5052172;28;20020;-66
2022/01/14 00:39:35;;;;;;;0.47;0.10;;;;;;;;;;5052360;28;20025;-68
2022/01/14 00:42:01;;;;;;;0.47;0.20;;;;;;;;;;5052262;28;20052;-67
2022/01/14 00:44:26;;;;;;;0.40;0.10;;;;;;;;;;5052556;28;20079;-67
2022/01/14 00:46:52;;;;;;;0.35;0.10;;;;;;;;;;5052322;28;20167;-67
2022/01/14 00:49:18;;;;;;;0.63;0.03;;;;;;;;;;5050707;28;20036;-67
2022/01/14 00:51:43;;;;;;;1.00;0.20;;;;;;;;;;5052291;28;20250;-68
2022/01/14 00:54:09;;;;;;;0.10;0.03;;;;;;;;;;5052321;28;20057;-68
2022/01/14 00:56:48;;;;;;;0.73;0.10;;;;;;;;;;5052207;28;20025;-68
2022/01/14 00:59:14;;;;;;;0.40;0.28;;;;;;;;;;5051903;28;20024;-66
2022/01/14 01:01:50;;;;;;;0.57;0.17;;;;;;;;;;5052197;28;20013;-66
2022/01/14 01:04:20;;;;;;;0.60;0.10;;;;;;;;;;5051935;28;20037;-66
2022/01/14 01:06:47;;;;;;;0.52;0.00;;;;;;;;;;5050873;28;20025;-66
2022/01/14 01:09:13;;;;;;;0.20;0.10;;;;;;;;;;5050490;28;20544;-66
2022/01/14 01:11:42;;;;;;;0.32;0.05;;;;;;;;;;5054020;28;20029;-66
2022/01/14 01:14:13;;;;;;;0.30;0.10;;;;;;;;;;5055834;28;20108;-68
2022/01/14 01:16:39;;;;;;;0.20;0.10;;;;;;;;;;5056089;28;20016;-67
2022/01/14 01:19:04;;;;;;;0.35;0.10;;;;;;;;;;5055674;28;20071;-67
2022/01/14 01:21:29;;;;;;;0.10;0.10;;;;;;;;;;5055921;28;20017;-67
2022/01/14 01:23:54;;;;;;;0.38;0.10;;;;;;;;;;5055887;28;20021;-67
2022/01/14 01:26:28;;;;;;;0.40;0.10;;;;;;;;;;5054364;28;20112;-66
2022/01/14 01:29:18;;;;;;;0.10;0.10;;;;;;;;;;5055867;28;20176;-66
2022/01/14 01:31:43;;;;;;;0.52;0.10;;;;;;;;;;5055466;28;20055;-67
2022/01/14 01:34:09;;;;;;;0.10;0.00;;;;;;;;;;5054255;28;20025;-66
2022/01/14 01:36:35;;;;;;;0.52;0.08;;;;;;;;;;5054318;28;20029;-67
2022/01/14 01:39:01;;;;;;;0.20;0.10;;;;;;;;;;5055364;28;20035;-68
2022/01/14 01:41:28;;;;;;;0.47;0.10;;;;;;;;;;5055751;28;20016;-67
2022/01/14 01:43:54;;;;;;;0.40;0.20;;;;;;;;;;5055390;28;20012;-67
2022/01/14 01:46:20;;;;;;;0.30;0.03;;;;;;;;;;5055318;28;20364;-68
2022/01/14 01:48:47;;;;;;;0.20;0.20;;;;;;;;;;5055456;28;20036;-67
2022/01/14 01:51:13;;;;;;;0.47;0.30;;;;;;;;;;5055100;28;20025;-66
2022/01/14 01:53:38;;;;;;;0.17;0.17;;;;;;;;;;5055327;28;20031;-66
2022/01/14 01:56:03;;;;;;;0.85;0.20;;;;;;;;;;5055160;28;20029;-66
2022/01/14 01:58:28;;;;;;;0.03;0.00;;;;;;;;;;5055386;28;20372;-66
2022/01/14 02:00:54;;;;;;;0.10;0.00;;;;;;;;;;5055012;28;20368;-66
2022/01/14 02:03:19;;;;;;;1.27;0.20;;;;;;;;;;5053739;28;20044;-66
2022/01/14 02:05:44;;;;;;;0.10;0.10;;;;;;;;;;5055038;28;20052;-67
2022/01/14 02:08:09;;;;;;;0.17;0.10;;;;;;;;;;5054868;28;20764;-66
2022/01/14 02:10:36;;;;;;;0.20;0.10;;;;;;;;;;5055054;28;20029;-66
2022/01/14 02:13:01;;;;;;;0.20;0.00;;;;;;;;;;5054773;28;20330;-66
2022/01/14 02:18:25;;;;;;;0.10;0.00;;;;;;;;;;5054881;28;20024;-66
2022/01/14 02:23:27;;;;;;;1.35;0.10;;;;;;;;;;5053578;28;20113;-66
2022/01/14 02:25:52;;;;;;;0.20;0.05;;;;;;;;;;5054790;28;20041;-67
2022/01/14 02:28:18;;;;;;;0.08;0.08;;;;;;;;;;5054544;28;20429;-66
2022/01/14 02:30:44;;;;;;;0.10;0.10;;;;;;;;;;5054676;28;20024;-66
2022/01/14 02:33:10;;;;;;;0.60;0.20;;;;;;;;;;5053108;28;20024;-67
2022/01/14 02:35:36;;;;;;;0.00;0.00;;;;;;;;;;5054547;28;20111;-66
2022/01/14 02:38:01;;;;;;;0.10;0.00;;;;;;;;;;5054274;28;20017;-66
2022/01/14 02:40:27;;;;;;;0.30;0.20;;;;;;;;;;5054408;28;20025;-67
2022/01/14 02:42:54;;;;;;;0.80;0.00;;;;;;;;;;5054380;28;20625;-67
2022/01/14 02:45:21;;;;;;;1.45;0.63;;;;;;;;;;5054136;28;20021;-65
2022/01/14 02:47:47;;;;;;;0.40;0.10;;;;;;;;;;5054392;28;20024;-66
2022/01/14 02:50:16;;;;;;;0.30;0.00;;;;;;;;;;5054107;28;20025;-67
2022/01/14 02:55:27;;;;;;;0.40;0.20;;;;;;;;;;5053759;28;20021;-67
2022/01/14 02:57:53;;;;;;;0.30;0.00;;;;;;;;;;5054076;28;20077;-66
2022/01/14 03:00:19;;;;;;;1.55;0.10;;;;;;;;;;5053883;28;20104;-66
2022/01/14 03:02:46;;;;;;;0.35;0.08;;;;;;;;;;5054047;28;20013;-66
2022/01/14 03:05:12;;;;;;;0.93;0.20;;;;;;;;;;5053523;28;20045;-66
2022/01/14 03:07:38;;;;;;;0.30;0.10;;;;;;;;;;5052584;28;20383;-67
2022/01/14 03:10:04;;;;;;;0.30;0.10;;;;;;;;;;5053734;28;20377;-67
2022/01/14 03:12:29;;;;;;;0.65;0.40;;;;;;;;;;5054055;28;20025;-66
2022/01/14 03:14:54;;;;;;;1.70;0.20;;;;;;;;;;5054090;28;20021;-66
2022/01/14 03:17:19;;;;;;;1.23;0.10;;;;;;;;;;5053521;28;20250;-68
2022/01/14 03:19:46;;;;;;;0.10;0.00;;;;;;;;;;5053663;28;20277;-67
2022/01/14 03:22:52;;;;;;;0.20;0.10;;;;;;;;;;5053506;28;20468;-67
2022/01/14 03:27:47;;;;;;;0.00;0.00;;;;;;;;;;5053656;28;20498;-66
2022/01/14 03:30:12;;;;;;;0.03;0.03;;;;;;;;;;5053365;28;20108;-68
2022/01/14 03:32:38;;;;;;;0.10;0.05;;;;;;;;;;5053476;28;20250;-66
2022/01/14 03:35:03;;;;;;;0.52;0.38;;;;;;;;;;5052742;28;20409;-68
2022/01/14 03:37:29;;;;;;;0.65;0.30;;;;;;;;;;5051983;28;20353;-67
2022/01/14 03:39:54;;;;;;;2.20;0.10;;;;;;;;;;5053266;28;20519;-67
2022/01/14 03:42:19;;;;;;;0.45;0.13;;;;;;;;;;5053029;28;20254;-66
2022/01/14 03:44:44;;;;;;;0.63;0.10;;;;;;;;;;5053290;28;20025;-66
2022/01/14 03:47:09;;;;;;;0.17;0.10;;;;;;;;;;5052943;28;20016;-66
2022/01/14 03:49:34;;;;;;;0.33;0.10;;;;;;;;;;5053424;28;20037;-66
2022/01/14 03:52:00;;;;;;;0.00;0.00;;;;;;;;;;5052993;28;20254;-66
2022/01/14 03:54:25;;;;;;;0.77;0.10;;;;;;;;;;5052997;28;20055;-67
2022/01/14 03:56:50;;;;;;;0.53;0.20;;;;;;;;;;5053100;28;20725;-66
2022/01/14 03:59:15;;;;;;;0.60;0.10;;;;;;;;;;5052615;28;20328;-66
2022/01/14 04:01:40;;;;;;;0.10;0.10;;;;;;;;;;5052939;28;20250;-66
2022/01/14 04:04:05;;;;;;;0.20;0.10;;;;;;;;;;5052571;28;20049;-66
2022/01/14 04:06:31;;;;;;;1.53;0.40;;;;;;;;;;5053090;28;20020;-66
2022/01/14 04:08:56;;;;;;;0.13;0.00;;;;;;;;;;5052766;28;20639;-66
2022/01/14 04:11:22;;;;;;;0.10;0.00;;;;;;;;;;5052591;28;20111;-67
2022/01/14 04:13:54;;;;;;;0.20;0.10;;;;;;;;;;5052837;28;20447;-66
2022/01/14 04:16:20;;;;;;;0.40;0.10;;;;;;;;;;5052533;28;20028;-67
2022/01/14 04:18:45;;;;;;;0.30;0.10;;;;;;;;;;5052708;28;20025;-66
2022/01/14 04:21:10;;;;;;;0.28;0.10;;;;;;;;;;5052318;28;20032;-68
2022/01/14 04:23:36;;;;;;;0.20;0.00;;;;;;;;;;5052721;28;20037;-67
2022/01/14 04:26:01;;;;;;;0.10;0.00;;;;;;;;;;5052419;28;20246;-67
2022/01/14 04:28:29;;;;;;;1.00;0.17;;;;;;;;;;5052526;28;20020;-66
2022/01/14 04:30:54;;;;;;;0.10;0.10;;;;;;;;;;5052502;28;20017;-66
2022/01/14 04:33:21;;;;;;;0.20;0.10;;;;;;;;;;5052229;28;20024;-66
2022/01/14 04:35:46;;;;;;;0.30;0.10;;;;;;;;;;5052529;28;20099;-66
2022/01/14 04:38:11;;;;;;;2.00;0.10;;;;;;;;;;5052214;28;20115;-68
2022/01/14 04:40:36;;;;;;;0.70;0.20;;;;;;;;;;5052459;28;20033;-66
2022/01/14 04:43:01;;;;;;;1.27;0.10;;;;;;;;;;5052119;28;20257;-66
2022/01/14 04:48:02;;;;;;;0.20;0.03;;;;;;;;;;5052601;28;20717;-66
2022/01/14 04:50:27;;;;;;;0.05;0.00;;;;;;;;;;5052190;28;20048;-68
2022/01/14 04:52:53;;;;;;;1.05;0.20;;;;;;;;;;5052256;28;20479;-66
2022/01/14 04:55:21;;;;;;;0.65;0.22;;;;;;;;;;5051975;28;20021;-66
2022/01/14 04:57:46;;;;;;;0.47;0.10;;;;;;;;;;5052597;28;20051;-66
2022/01/14 05:00:14;;;;;;;0.40;0.10;;;;;;;;;;5052044;28;20021;-68
2022/01/14 05:02:39;;;;;;;0.55;0.10;;;;;;;;;;5052187;28;20250;-66
2022/01/14 05:05:04;;;;;;;0.20;0.00;;;;;;;;;;5051829;28;20067;-67
2022/01/14 05:07:30;;;;;;;1.27;0.00;;;;;;;;;;5052078;28;20246;-66
2022/01/14 05:12:30;;;;;;;0.95;0.20;;;;;;;;;;5052414;28;20029;-66
2022/01/14 05:14:55;;;;;;;0.10;0.08;;;;;;;;;;5052045;28;20032;-67
2022/01/14 05:17:20;;;;;;;0.40;0.10;;;;;;;;;;5052133;28;20017;-66
2022/01/14 05:19:45;;;;;;;0.20;0.10;;;;;;;;;;5052028;28;20300;-66
2022/01/14 05:22:10;;;;;;;0.30;0.03;;;;;;;;;;5051834;28;20058;-66
2022/01/14 05:24:36;;;;;;;0.10;0.00;;;;;;;;;;5051945;28;20059;-66
2022/01/14 05:27:01;;;;;;;0.17;0.13;;;;;;;;;;5051877;28;20040;-66
2022/01/14 05:29:26;;;;;;;0.00;0.00;;;;;;;;;;5051852;28;20258;-66
2022/01/14 05:32:01;;;;;;;0.22;0.08;;;;;;;;;;5050692;28;20053;-66
2022/01/14 05:34:26;;;;;;;0.30;0.00;;;;;;;;;;5051787;28;20025;-66
2022/01/14 05:36:51;;;;;;;2.08;0.00;;;;;;;;;;5052145;28;20017;-66
2022/01/14 05:39:20;;;;;;;0.00;0.00;;;;;;;;;;5051561;28;20017;-66
2022/01/14 05:41:45;;;;;;;0.73;0.10;;;;;;;;;;5051870;28;20104;-66
2022/01/14 05:44:10;;;;;;;0.15;0.05;;;;;;;;;;5051662;28;20426;-67
2022/01/14 05:46:35;;;;;;;0.73;0.10;;;;;;;;;;5051766;28;20029;-66
2022/01/14 05:49:00;;;;;;;0.00;0.00;;;;;;;;;;5051607;28;20027;-67
2022/01/14 05:51:25;;;;;;;1.77;0.10;;;;;;;;;;5051628;28;20036;-67
2022/01/14 05:53:51;;;;;;;0.63;0.10;;;;;;;;;;5051830;28;20036;-67
2022/01/14 05:56:16;;;;;;;0.03;0.03;;;;;;;;;;5051841;28;20025;-66
2022/01/14 05:58:41;;;;;;;0.05;0.05;;;;;;;;;;5054938;28;20029;-66
2022/01/14 06:01:06;;;;;;;0.08;0.08;;;;;;;;;;5053439;28;20059;-66
2022/01/14 06:03:31;;;;;;;0.17;0.10;;;;;;;;;;5055463;28;20063;-65
2022/01/14 06:05:57;;;;;;;0.20;0.10;;;;;;;;;;5055022;28;20309;-66
2022/01/14 06:08:22;;;;;;;0.13;0.10;;;;;;;;;;5054989;28;20479;-66
2022/01/14 06:10:47;;;;;;;0.57;0.10;;;;;;;;;;5055150;28;20033;-66
2022/01/14 06:13:12;;;;;;;1.07;0.10;;;;;;;;;;5054805;28;20895;-66
2022/01/14 06:15:37;;;;;;;0.10;0.10;;;;;;;;;;5053728;28;20238;-67
2022/01/14 06:18:02;;;;;;;0.73;0.20;;;;;;;;;;5054727;28;20609;-66
2022/01/14 06:20:28;;;;;;;0.13;0.10;;;;;;;;;;5054872;28;20036;-67
2022/01/14 06:22:53;;;;;;;0.50;0.17;;;;;;;;;;5054817;28;20325;-66
2022/01/14 06:25:18;;;;;;;0.40;0.10;;;;;;;;;;5054501;28;20033;-66
2022/01/14 06:27:44;;;;;;;0.20;0.10;;;;;;;;;;5054832;28;20468;-66
2022/01/14 06:30:09;;;;;;;1.50;0.30;;;;;;;;;;5054444;28;20037;-66
2022/01/14 06:32:41;;;;;;;0.40;0.20;;;;;;;;;;5053329;28;20304;-66
2022/01/14 06:35:06;;;;;;;0.30;0.20;;;;;;;;;;5054356;28;20104;-66
2022/01/14 06:37:31;;;;;;;0.25;0.15;;;;;;;;;;5054561;28;20200;-66
2022/01/14 06:39:57;;;;;;;0.15;0.10;;;;;;;;;;5054411;28;20075;-66
2022/01/14 06:42:22;;;;;;;0.45;0.10;;;;;;;;;;5054250;28;20021;-67
2022/01/14 06:44:47;;;;;;;1.98;0.10;;;;;;;;;;5053147;28;20063;-66
2022/01/14 06:47:12;;;;;;;0.50;0.13;;;;;;;;;;5054054;28;20022;-66
2022/01/14 06:49:37;;;;;;;0.08;0.08;;;;;;;;;;5054255;28;20304;-66
2022/01/14 06:52:03;;;;;;;0.50;0.10;;;;;;;;;;5054091;28;20056;-65
2022/01/14 06:54:28;;;;;;;0.30;0.20;;;;;;;;;;5054389;28;20290;-66
2022/01/14 06:56:53;;;;;;;0.43;0.20;;;;;;;;;;5054181;28;20025;-66
2022/01/14 06:59:19;;;;;;;0.43;0.23;;;;;;;;;;5053722;28;20282;-66
2022/01/14 07:01:44;;;;;;;0.30;0.28;;;;;;;;;;5053945;28;20246;-67
2022/01/14 07:04:10;;;;;;;1.13;0.50;;;;;;;;;;5053643;28;20048;-66
2022/01/14 07:06:35;;;;;;;0.00;0.00;;;;;;;;;;5054009;28;20701;-66
2022/01/14 07:09:00;;;;;;;0.00;0.00;;;;;;;;;;5053016;28;20047;-66
2022/01/14 07:11:30;;;;;;;0.15;0.15;;;;;;;;;;5053848;28;20716;-65
2022/01/14 07:13:55;;;;;;;0.63;0.13;;;;;;;;;;5053804;28;20035;-66
2022/01/14 07:16:20;;;;;;;0.33;0.00;;;;;;;;;;5053794;28;20025;-66
2022/01/14 07:18:48;;;;;;;0.20;0.00;;;;;;;;;;5053712;28;20313;-67
2022/01/14 07:21:13;;;;;;;0.45;0.00;;;;;;;;;;5053473;28;20249;-67
2022/01/14 07:23:38;;;;;;;0.30;0.20;;;;;;;;;;5051898;28;20025;-67
2022/01/14 07:26:03;;;;;;;0.00;0.00;;;;;;;;;;5047121;28;20024;-66
2022/01/14 07:28:29;;;;;;;1.00;0.20;;;;;;;;;;5048585;28;20362;-65
2022/01/14 07:30:54;;;;;;;0.40;0.00;;;;;;;;;;5053508;28;20253;-66
2022/01/14 07:33:19;;;;;;;0.10;0.00;;;;;;;;;;5052655;28;20499;-66
2022/01/14 07:35:44;;;;;;;0.30;0.17;;;;;;;;;;5066832;28;20444;-67
2022/01/14 07:38:09;;;;;;;0.25;0.10;;;;;;;;;;5072548;28;20244;-65
2022/01/14 07:40:37;;;;;;;0.57;0.20;;;;;;;;;;5052704;28;20017;-66
2022/01/14 07:43:02;;;;;;;0.55;0.00;;;;;;;;;;5052675;28;20657;-65
2022/01/14 07:45:27;;;;;;;0.40;0.10;;;;;;;;;;5052577;28;20020;-67
2022/01/14 07:47:52;;;;;;;0.60;0.08;;;;;;;;;;5052236;28;20067;-68
2022/01/14 07:50:17;;;;;;;0.68;0.30;;;;;;;;;;5052529;28;20124;-67
2022/01/14 07:52:43;;;;;;;0.67;0.20;;;;;;;;;;5052289;28;20032;-65
2022/01/14 07:55:08;;;;;;;0.32;0.17;;;;;;;;;;5051471;28;20432;-65
2022/01/14 07:57:33;;;;;;;1.77;0.30;;;;;;;;;;5052492;28;20033;-66
2022/01/14 07:59:59;;;;;;;0.20;0.00;;;;;;;;;;5052645;28;20028;-65
2022/01/14 08:02:25;;;;;;;0.43;0.20;;;;;;;;;;5052283;28;20460;-64
2022/01/14 08:04:51;;;;;;;0.88;0.30;;;;;;;;;;5050587;28;20468;-66
2022/01/14 08:07:22;;;;;;;0.70;0.20;;;;;;;;;;5051235;28;20467;-65
2022/01/14 08:09:47;;;;;;;0.38;0.13;;;;;;;;;;5052305;28;20024;-65
2022/01/14 08:12:12;;;;;;;0.70;0.17;;;;;;;;;;5051530;28;20270;-65
2022/01/14 08:14:37;;;;;;;0.50;0.10;;;;;;;;;;5051967;28;20400;-65
2022/01/14 08:17:03;;;;;;;0.30;0.10;;;;;;;;;;5050116;28;20025;-64
2022/01/14 08:19:33;;;;;;;0.50;0.13;;;;;;;;;;5051873;28;20029;-66
2022/01/14 08:21:58;;;;;;;0.38;0.15;;;;;;;;;;5051221;28;20017;-66
2022/01/14 08:24:23;;;;;;;0.55;0.20;;;;;;;;;;5052201;28;20345;-65
2022/01/14 08:26:49;;;;;;;0.35;0.20;;;;;;;;;;5052258;28;20033;-65
2022/01/14 08:29:14;;;;;;;0.40;0.20;;;;;;;;;;5051425;28;20048;-66
2022/01/14 08:31:39;;;;;;;0.73;0.20;;;;;;;;;;5063607;28;20368;-65
2022/01/14 08:34:04;;;;;;;0.60;0.20;;;;;;;;;;5052170;28;20028;-66
2022/01/14 08:36:30;;;;;;;0.20;0.10;;;;;;;;;;5058205;28;20025;-66
2022/01/14 08:38:55;;;;;;;0.57;0.00;;;;;;;;;;5051237;28;20335;-65
2022/01/14 08:41:21;;;;;;;0.65;0.10;;;;;;;;;;5051943;28;20048;-65
2022/01/14 08:43:47;;;;;;;0.30;0.22;;;;;;;;;;5052095;28;20021;-65
2022/01/14 08:46:13;;;;;;;0.30;0.28;;;;;;;;;;5051215;28;20055;-65
2022/01/14 08:48:38;;;;;;;0.65;0.10;;;;;;;;;;5051559;28;20017;-65
2022/01/14 08:51:03;;;;;;;0.03;0.00;;;;;;;;;;5050961;28;20036;-67
2022/01/14 08:53:28;;;;;;;0.20;0.10;;;;;;;;;;5051319;28;20035;-65
2022/01/14 08:55:54;;;;;;;0.37;0.10;;;;;;;;;;5051159;28;20448;-65
2022/01/14 08:58:19;;;;;;;0.45;0.10;;;;;;;;;;5051198;28;20033;-66
2022/01/14 09:00:44;;;;;;;0.97;0.50;;;;;;;;;;5050677;28;20033;-66
2022/01/14 09:03:09;;;;;;;0.22;0.00;;;;;;;;;;5050667;28;20258;-64
2022/01/14 09:05:34;;;;;;;0.27;0.20;;;;;;;;;;5050852;28;20049;-66
2022/01/14 09:08:00;;;;;;;0.47;0.20;;;;;;;;;;5051134;28;20325;-65
2022/01/14 09:10:26;;;;;;;0.08;0.00;;;;;;;;;;5051197;28;20025;-64
2022/01/14 09:12:51;;;;;;;0.90;0.20;;;;;;;;;;5051097;28;20028;-64
2022/01/14 09:15:17;;;;;;;0.40;0.13;;;;;;;;;;5050878;28;20029;-65
2022/01/14 09:17:42;;;;;;;0.22;0.10;;;;;;;;;;5051274;28;20025;-65
2022/01/14 09:20:09;;;;;;;0.40;0.13;;;;;;;;;;5051433;28;20024;-65
2022/01/14 09:22:35;;;;;;;1.75;0.10;;;;;;;;;;5051847;28;20406;-64
2022/01/14 09:25:01;;;;;;;0.15;0.10;;;;;;;;;;5051702;28;20013;-64
2022/01/14 09:27:27;;;;;;;0.30;0.10;;;;;;;;;;5051751;28;20028;-64
2022/01/14 09:29:54;;;;;;;1.45;0.20;;;;;;;;;;5051754;28;20023;-65
2022/01/14 09:32:19;;;;;;;0.32;0.10;;;;;;;;;;5052897;28;20166;-65
2022/01/14 09:34:45;;;;;;;0.60;0.30;;;;;;;;;;5055469;28;20436;-65
2022/01/14 09:37:10;;;;;;;0.13;0.10;;;;;;;;;;5055244;28;20017;-64
2022/01/14 09:39:36;;;;;;;0.20;0.20;;;;;;;;;;5055423;28;20025;-64
2022/01/14 09:42:02;;;;;;;0.20;0.00;;;;;;;;;;5055182;28;20246;-65
2022/01/14 09:44:27;;;;;;;0.68;0.13;;;;;;;;;;5055408;28;20052;-64
2022/01/14 09:46:52;;;;;;;0.35;0.10;;;;;;;;;;5055226;28;20426;-64
2022/01/14 09:49:20;;;;;;;1.02;0.20;;;;;;;;;;5054955;28;20021;-65
2022/01/14 09:51:46;;;;;;;0.65;0.00;;;;;;;;;;5055333;28;20099;-64
2022/01/14 09:54:11;;;;;;;0.55;0.10;;;;;;;;;;5054973;28;20499;-64
2022/01/14 09:56:37;;;;;;;0.28;0.10;;;;;;;;;;5053949;28;20044;-64
2022/01/14 09:59:03;;;;;;;0.70;0.25;;;;;;;;;;5054986;28;20460;-65
2022/01/14 10:01:36;;;;;;;0.45;0.10;;;;;;;;;;5054815;28;20395;-64
2022/01/14 10:04:02;;;;;;;0.47;0.00;;;;;;;;;;5054711;28;20033;-64
2022/01/14 10:06:35;;;;;;;0.20;0.10;;;;;;;;;;5054961;28;20016;-64
2022/01/14 10:09:09;;;;;;;0.80;0.10;;;;;;;;;;5053369;28;20033;-65
2022/01/14 10:11:35;;;;;;;0.52;0.00;;;;;;;;;;5054977;28;20017;-65
2022/01/14 10:14:09;;;;;;;0.60;0.10;;;;;;;;;;5054691;28;20057;-65
2022/01/14 10:16:34;;;;;;;0.20;0.00;;;;;;;;;;5054858;28;20017;-64
2022/01/14 10:19:00;;;;;;;0.10;0.00;;;;;;;;;;5054345;28;20532;-64
2022/01/14 10:21:32;;;;;;;0.73;0.10;;;;;;;;;;5054597;28;20032;-64
2022/01/14 10:23:59;;;;;;;0.80;0.00;;;;;;;;;;5054636;28;20047;-65
2022/01/14 10:26:26;;;;;;;0.15;0.00;;;;;;;;;;5054494;28;20040;-64
2022/01/14 10:29:02;;;;;;;0.32;0.20;;;;;;;;;;5054368;28;20100;-65
2022/01/14 10:31:31;;;;;;;0.35;0.10;;;;;;;;;;5054462;28;20025;-65
2022/01/14 10:34:10;;;;;;;0.22;0.10;;;;;;;;;;5052281;28;20484;-65
2022/01/14 10:36:35;;;;;;;0.20;0.08;;;;;;;;;;5054054;28;20464;-65
2022/01/14 10:39:16;;;;;;;1.48;0.03;;;;;;;;;;5052304;28;20032;-64
2022/01/14 10:41:41;;;;;;;0.98;0.17;;;;;;;;;;5060991;28;20021;-64
2022/01/14 10:44:27;;;;;;;0.77;0.10;;;;;;;;;;5051089;28;20723;-64
2022/01/14 10:47:11;;;;;;;0.85;0.05;;;;;;;;;;5052670;28;20733;-66
2022/01/14 10:49:37;;;;;;;0.50;0.10;;;;;;;;;;5054171;28;20021;-64
2022/01/14 10:52:28;;;;;;;0.28;0.00;;;;;;;;;;5054006;28;20460;-64
2022/01/14 10:54:58;;;;;;;0.30;0.10;;;;;;;;;;5051749;28;20037;-66
2022/01/14 10:57:27;;;;;;;0.40;0.10;;;;;;;;;;5053912;28;20028;-66
2022/01/14 10:59:54;;;;;;;0.57;0.15;;;;;;;;;;5053902;28;20024;-65
2022/01/14 11:02:33;;;;;;;0.20;0.10;;;;;;;;;;5053712;28;20101;-67
2022/01/14 11:05:14;;;;;;;0.57;0.10;;;;;;;;;;5053468;28;20045;-66
2022/01/14 11:07:40;;;;;;;0.47;0.03;;;;;;;;;;5053785;28;20017;-65
2022/01/14 11:10:14;;;;;;;0.05;0.00;;;;;;;;;;5052430;28;20159;-65
2022/01/14 11:12:43;;;;;;;0.40;0.05;;;;;;;;;;5053613;28;20143;-64
2022/01/14 11:15:09;;;;;;;0.55;0.00;;;;;;;;;;5053142;28;20032;-64
2022/01/14 11:17:38;;;;;;;0.60;0.10;;;;;;;;;;5053586;28;20021;-64
2022/01/14 11:20:04;;;;;;;0.32;0.10;;;;;;;;;;5053367;28;20023;-64
2022/01/14 11:25:13;;;;;;;0.38;0.05;;;;;;;;;;5053233;28;20032;-64
2022/01/14 11:27:39;;;;;;;0.17;0.10;;;;;;;;;;5053441;28;20016;-65
2022/01/14 11:30:11;;;;;;;0.35;0.20;;;;;;;;;;5053523;28;20112;-64
2022/01/14 11:32:53;;;;;;;1.40;0.00;;;;;;;;;;5053377;28;20507;-65
2022/01/14 11:35:22;;;;;;;0.55;0.10;;;;;;;;;;5053090;28;20044;-65
2022/01/14 11:37:47;;;;;;;0.45;0.03;;;;;;;;;;5053355;28;20040;-64
2022/01/14 11:40:15;;;;;;;0.60;0.10;;;;;;;;;;5053023;28;20025;-64
2022/01/14 11:42:58;;;;;;;0.73;0.28;;;;;;;;;;5052671;28;20020;-64
2022/01/14 11:45:38;;;;;;;0.70;0.10;;;;;;;;;;5051286;28;20013;-65
2022/01/14 11:48:04;;;;;;;0.50;0.10;;;;;;;;;;5042133;28;20032;-65
2022/01/14 11:50:32;;;;;;;0.85;0.10;;;;;;;;;;5052273;28;20025;-65
2022/01/14 11:53:01;;;;;;;0.40;0.10;;;;;;;;;;5051366;28;20029;-64
2022/01/14 11:55:34;;;;;;;1.30;0.15;;;;;;;;;;5050798;28;20017;-65
2022/01/14 11:58:02;;;;;;;0.85;0.10;;;;;;;;;;5050512;28;20406;-64
2022/01/14 12:00:29;;;;;;;0.52;0.03;;;;;;;;;;5051974;28;20017;-64
2022/01/14 12:03:06;;;;;;;0.28;0.10;;;;;;;;;;5052604;28;20021;-64
2022/01/14 12:05:32;;;;;;;0.50;0.20;;;;;;;;;;5052451;28;20044;-66
2022/01/14 12:08:11;;;;;;;0.43;0.20;;;;;;;;;;5052708;28;20028;-64
2022/01/14 12:10:57;;;;;;;1.75;0.32;;;;;;;;;;5052690;28;20474;-64
2022/01/14 12:13:41;;;;;;;0.35;0.08;;;;;;;;;;5010146;28;20081;-64
2022/01/14 12:16:07;;;;;;;;;;;;;;;;;;5010693;28;20168;-64
2022/01/14 12:18:51;;;;;;;0.10;0.05;;;;;;;;;;5010559;28;19999;-64
2022/01/14 12:21:16;;;;;;;0.73;0.10;;;;;;;;;;5010151;28;20025;-64
2022/01/14 12:23:41;;;;;;;0.30;0.10;;;;;;;;;;5010437;28;20014;-64
2022/01/14 12:26:14;;;;;;;0.38;0.10;;;;;;;;;;5010017;28;20351;-64
2022/01/14 12:28:40;;;;;;;0.73;0.00;;;;;;;;;;5010249;28;20694;-64
2022/01/14 12:31:05;;;;;;;0.77;0.20;;;;;;;;;;5009328;28;20042;-64
2022/01/14 12:33:48;;;;;;;0.45;0.05;;;;;;;;;;5009897;28;20028;-65
2022/01/14 12:36:16;;;;;;;0.15;0.10;;;;;;;;;;5010069;28;20545;-65
2022/01/14 12:38:43;;;;;;;0.30;0.00;;;;;;;;;;5009928;28;20060;-65
2022/01/14 12:41:14;;;;;;;0.10;0.00;;;;;;;;;;5009867;28;20386;-64
2022/01/14 12:43:49;;;;;;;0.70;0.10;;;;;;;;;;5010039;28;20065;-64
2022/01/14 12:46:34;;;;;;;0.55;0.10;;;;;;;;;;5010010;28;20036;-64
2022/01/14 12:48:59;;;;;;;;;;;;;;;;;;5010273;28;20453;-64
2022/01/14 12:51:26;;;;;;;1.10;0.10;;;;;;;;;;5047307;28;19991;-64
2022/01/14 12:53:56;;;;;;;0.20;0.10;;;;;;;;;;5051815;28;20025;-65
2022/01/14 12:56:22;;;;;;;0.57;0.10;;;;;;;;;;5050605;28;20476;-66
2022/01/14 12:58:51;;;;;;;1.15;0.10;;;;;;;;;;5051773;28;20434;-65
2022/01/14 13:01:16;;;;;;;1.08;0.13;;;;;;;;;;5052034;28;20024;-65
2022/01/14 13:03:41;;;;;;;0.25;0.10;;;;;;;;;;5051871;28;20013;-64
2022/01/14 13:06:07;;;;;;;0.87;0.10;;;;;;;;;;5051574;28;20049;-65
2022/01/14 13:08:32;;;;;;;0.33;0.10;;;;;;;;;;5055424;28;20315;-65
2022/01/14 13:11:04;;;;;;;0.28;0.10;;;;;;;;;;5055768;28;20040;-65
2022/01/14 13:13:29;;;;;;;0.85;0.10;;;;;;;;;;5055889;28;20025;-64
2022/01/14 13:16:00;;;;;;;0.37;0.10;;;;;;;;;;5055943;28;20032;-64
2022/01/14 13:18:29;;;;;;;0.32;0.15;;;;;;;;;;5055693;28;20245;-64
2022/01/14 13:20:54;;;;;;;1.52;0.10;;;;;;;;;;5055616;28;20036;-64
2022/01/14 13:23:20;;;;;;;0.43;0.10;;;;;;;;;;5055571;28;20380;-64
2022/01/14 13:25:46;;;;;;;0.82;0.38;;;;;;;;;;5055699;28;20025;-64
2022/01/14 13:28:11;;;;;;;0.65;0.10;;;;;;;;;;5055643;28;20452;-64
2022/01/14 13:30:42;;;;;;;0.20;0.03;;;;;;;;;;5055665;28;20518;-64
2022/01/14 13:33:08;;;;;;;0.20;0.05;;;;;;;;;;5055366;28;20052;-64
2022/01/14 13:35:35;;;;;;;0.17;0.00;;;;;;;;;;5055566;28;20526;-64
2022/01/14 13:38:04;;;;;;;0.47;0.10;;;;;;;;;;5055704;28;20396;-65
2022/01/14 13:40:34;;;;;;;0.47;0.20;;;;;;;;;;5055362;28;20016;-64
2022/01/14 13:43:02;;;;;;;0.28;0.00;;;;;;;;;;5055015;28;20035;-64
2022/01/14 13:45:27;;;;;;;1.10;0.22;;;;;;;;;;5055346;28;20028;-64
2022/01/14 13:48:16;;;;;;;0.10;0.10;;;;;;;;;;5055367;28;20009;-64
2022/01/14 13:50:45;;;;;;;0.13;0.10;;;;;;;;;;5055377;28;20025;-64
2022/01/14 13:53:12;;;;;;;0.10;0.05;;;;;;;;;;5053673;28;20017;-66
2022/01/14 13:55:44;;;;;;;0.50;0.13;;;;;;;;;;5055232;28;20032;-64
2022/01/14 13:58:22;;;;;;;0.10;0.05;;;;;;;;;;5053666;28;20019;-64
2022/01/14 14:00:49;;;;;;;0.20;0.10;;;;;;;;;;5054767;28;20044;-64
2022/01/14 14:03:18;;;;;;;0.60;0.10;;;;;;;;;;5054678;28;20025;-64
2022/01/14 14:05:49;;;;;;;0.38;0.03;;;;;;;;;;5053537;28;20049;-65
2022/01/14 14:08:39;;;;;;;0.73;0.10;;;;;;;;;;5054858;28;20548;-64
2022/01/14 14:11:59;;;;;;;0.05;0.05;;;;;;;;;;5054585;28;20456;-64
2022/01/14 14:16:47;;;;;;;0.20;0.05;;;;;;;;;;5054713;28;20028;-64
2022/01/14 14:19:12;;;;;;;0.08;0.03;;;;;;;;;;5054259;28;20021;-64
2022/01/14 14:21:40;;;;;;;0.35;0.05;;;;;;;;;;5054728;28;20021;-64
2022/01/14 14:24:08;;;;;;;0.05;0.05;;;;;;;;;;5053193;28;20108;-64
2022/01/14 14:26:33;;;;;;;0.32;0.10;;;;;;;;;;5054692;28;20418;-66
2022/01/14 14:28:59;;;;;;;0.30;0.10;;;;;;;;;;5054257;28;20048;-65
2022/01/14 14:31:26;;;;;;;0.10;0.10;;;;;;;;;;5054383;28;20017;-64
2022/01/14 14:33:51;;;;;;;0.10;0.00;;;;;;;;;;5053232;28;20025;-65
2022/01/14 14:36:16;;;;;;;0.60;0.10;;;;;;;;;;5054305;28;20146;-65
2022/01/14 14:38:42;;;;;;;0.20;0.10;;;;;;;;;;5054154;28;20269;-64
2022/01/14 14:41:08;;;;;;;0.50;0.08;;;;;;;;;;5052763;28;20349;-64
2022/01/14 14:43:33;;;;;;;0.40;0.10;;;;;;;;;;5054222;28;20027;-64
2022/01/14 14:45:58;;;;;;;0.15;0.10;;;;;;;;;;5054217;28;20243;-64
2022/01/14 14:48:23;;;;;;;0.22;0.05;;;;;;;;;;5054151;28;20461;-64
2022/01/14 14:50:48;;;;;;;0.10;0.00;;;;;;;;;;5054109;28;20017;-64
2022/01/14 14:53:13;;;;;;;0.10;0.00;;;;;;;;;;5053938;28;20021;-64
2022/01/14 14:55:39;;;;;;;0.20;0.10;;;;;;;;;;5054346;28;20348;-64
2022/01/14 14:58:04;;;;;;;0.38;0.17;;;;;;;;;;5054201;28;20028;-64
2022/01/14 15:00:29;;;;;;;0.38;0.05;;;;;;;;;;5052567;28;20032;-64
2022/01/14 15:02:55;;;;;;;0.43;0.10;;;;;;;;;;5052481;28;20271;-64
2022/01/14 15:05:21;;;;;;;1.17;0.65;;;;;;;;;;5053372;28;20049;-65
2022/01/14 15:07:46;;;;;;;0.38;0.10;;;;;;;;;;5053849;28;20029;-64
2022/01/14 15:10:13;;;;;;;0.43;0.00;;;;;;;;;;5053669;28;20492;-64
2022/01/14 15:12:38;;;;;;;0.57;0.13;;;;;;;;;;5053702;28;20048;-64
2022/01/14 15:15:10;;;;;;;0.17;0.10;;;;;;;;;;5053324;28;20063;-65